Time;durP1;ratioP1;P1;durP2;ratioP2;P2;SDS_P1;SDS_P2;PMS_P1;PMS_P2;Temp;Humidity;BMP_temperature;BMP_pressure;BME280_temperature;BME280_humidity;BME280_pressure;Samples;Min_cycle;Max_cycle;Signal;HPM_P1;HPM_P2
2021/04/07 00:02:07;;;;;;;14.05;3.80;;;2.00;95.50;;;;;;5031046;28;20022;-71
2021/04/07 00:04:36;;;;;;;18.10;3.03;;;2.00;95.50;;;;;;5031263;28;20022;-71
2021/04/07 00:07:02;;;;;;;13.32;2.03;;;2.00;95.90;;;;;;5030952;28;20501;-70
2021/04/07 00:09:28;;;;;;;16.83;4.63;;;1.90;95.50;;;;;;5028777;28;20029;-70
2021/04/07 00:11:54;;;;;;;13.65;1.90;;;1.90;95.60;;;;;;5030935;28;20029;-71
2021/04/07 00:14:21;;;;;;;10.43;2.05;;;1.90;95.70;;;;;;5031345;28;20032;-71
2021/04/07 00:16:48;;;;;;;13.60;2.38;;;1.90;95.90;;;;;;5013114;28;20026;-71
2021/04/07 00:19:15;;;;;;;12.88;1.92;;;1.90;95.80;;;;;;5012299;28;20030;-71
2021/04/07 00:21:41;;;;;;;14.32;2.45;;;1.90;95.70;;;;;;5031230;28;20049;-71
2021/04/07 00:24:07;;;;;;;12.40;2.13;;;1.90;95.60;;;;;;5030312;28;20056;-71
2021/04/07 00:26:35;;;;;;;16.25;1.73;;;1.90;95.70;;;;;;5027981;28;20390;-71
2021/04/07 00:29:02;;;;;;;8.70;2.22;;;1.80;95.50;;;;;;5030997;28;20087;-71
2021/04/07 00:31:28;;;;;;;11.38;2.08;;;1.80;95.10;;;;;;5031437;28;20037;-71
2021/04/07 00:33:53;;;;;;;11.27;1.80;;;1.80;95.30;;;;;;5029761;28;20029;-71
2021/04/07 00:36:19;;;;;;;12.35;2.10;;;1.80;95.60;;;;;;5013151;28;20033;-71
2021/04/07 00:38:45;;;;;;;13.48;2.35;;;1.80;95.70;;;;;;5027544;28;20057;-71
2021/04/07 00:41:11;;;;;;;15.18;2.10;;;1.80;95.60;;;;;;5030440;28;20025;-70
2021/04/07 00:43:37;;;;;;;14.02;2.20;;;1.70;95.70;;;;;;5030924;28;20052;-71
2021/04/07 00:46:03;;;;;;;13.10;2.53;;;1.70;95.70;;;;;;5030528;28;20060;-71
2021/04/07 00:48:30;;;;;;;19.13;3.35;;;1.70;95.70;;;;;;5030302;28;20131;-71
2021/04/07 00:50:55;;;;;;;12.63;1.80;;;1.70;95.50;;;;;;5033196;28;20030;-71
2021/04/07 00:53:21;;;;;;;20.00;1.98;;;1.70;95.60;;;;;;5031830;28;20047;-71
2021/04/07 00:55:47;;;;;;;10.27;2.53;;;1.80;95.70;;;;;;5034137;28;20087;-71
2021/04/07 00:58:14;;;;;;;21.10;1.80;;;1.70;95.70;;;;;;5034057;28;20463;-71
2021/04/07 01:00:40;;;;;;;13.18;2.20;;;1.80;95.50;;;;;;5034237;28;20025;-71
2021/04/07 01:03:07;;;;;;;24.38;2.10;;;1.80;95.50;;;;;;5034432;28;20635;-71
2021/04/07 01:05:33;;;;;;;14.52;1.98;;;1.80;95.10;;;;;;5034702;28;20029;-71
2021/04/07 01:07:59;;;;;;;10.60;2.08;;;1.70;95.20;;;;;;5033447;28;20036;-71
2021/04/07 01:10:25;;;;;;;14.68;2.47;;;1.80;95.40;;;;;;5034994;28;20031;-71
2021/04/07 01:12:51;;;;;;;8.65;1.58;;;1.70;95.60;;;;;;5033423;28;20490;-71
2021/04/07 01:15:17;;;;;;;12.68;2.15;;;1.70;95.20;;;;;;5033929;28;20039;-71
2021/04/07 01:17:44;;;;;;;13.60;2.40;;;1.70;95.50;;;;;;5032022;28;20097;-71
2021/04/07 01:20:15;;;;;;;12.10;1.80;;;1.70;95.60;;;;;;5035206;28;20033;-71
2021/04/07 01:22:44;;;;;;;16.50;2.22;;;1.70;95.50;;;;;;5034252;28;20095;-71
2021/04/07 01:25:11;;;;;;;9.05;1.80;;;1.70;95.50;;;;;;5034501;28;20043;-71
2021/04/07 01:27:38;;;;;;;15.13;1.70;;;1.70;95.20;;;;;;5040528;28;20026;-71
2021/04/07 01:30:11;;;;;;;22.23;2.97;;;1.80;94.40;;;;;;5033517;28;20033;-71
2021/04/07 01:32:38;;;;;;;14.63;3.20;;;1.70;94.90;;;;;;5030906;28;20119;-71
2021/04/07 01:35:05;;;;;;;14.75;2.22;;;1.70;95.60;;;;;;5033086;28;20060;-71
2021/04/07 01:37:34;;;;;;;17.17;2.33;;;1.70;95.70;;;;;;5033011;28;20443;-71
2021/04/07 01:40:00;;;;;;;11.18;1.63;;;1.70;95.70;;;;;;5033284;28;20570;-71
2021/04/07 01:42:27;;;;;;;15.40;2.58;;;1.60;95.90;;;;;;5027899;28;20097;-71
2021/04/07 01:44:55;;;;;;;13.07;2.30;;;1.70;95.60;;;;;;5033326;28;20041;-71
2021/04/07 01:47:20;;;;;;;7.53;1.88;;;1.70;95.50;;;;;;5031635;28;20486;-71
2021/04/07 01:49:48;;;;;;;12.25;2.33;;;1.70;95.70;;;;;;5032269;28;20041;-71
2021/04/07 01:52:13;;;;;;;10.30;2.65;;;1.60;95.70;;;;;;5032013;28;20130;-71
2021/04/07 01:54:39;;;;;;;19.30;2.38;;;1.60;95.90;;;;;;5032262;28;20108;-71
2021/04/07 01:57:08;;;;;;;16.80;2.33;;;1.60;95.60;;;;;;5031738;28;20025;-71
2021/04/07 01:59:33;;;;;;;10.63;2.35;;;1.60;95.60;;;;;;5032871;28;20060;-71
2021/04/07 02:02:00;;;;;;;15.63;2.20;;;1.60;95.50;;;;;;5030118;28;20061;-71
2021/04/07 02:04:26;;;;;;;10.25;1.95;;;1.60;95.00;;;;;;5031960;28;20032;-71
2021/04/07 02:06:52;;;;;;;13.65;1.83;;;1.60;95.20;;;;;;5033050;28;20100;-71
2021/04/07 02:09:19;;;;;;;18.08;2.22;;;1.60;95.20;;;;;;5033051;28;20113;-71
2021/04/07 02:11:47;;;;;;;12.70;2.20;;;1.60;94.90;;;;;;5032010;28;20021;-71
2021/04/07 02:14:17;;;;;;;12.85;2.53;;;1.60;95.20;;;;;;5032664;28;20935;-71
2021/04/07 02:17:12;;;;;;;12.77;1.80;;;1.60;95.00;;;;;;5032043;28;20118;-71
2021/04/07 02:19:38;;;;;;;8.93;1.67;;;1.60;95.30;;;;;;5018381;28;20048;-71
2021/04/07 02:22:12;;;;;;;16.20;2.55;;;1.60;95.30;;;;;;5032739;28;20026;-71
2021/04/07 02:24:41;;;;;;;12.52;1.92;;;1.60;95.30;;;;;;5030702;28;20086;-71
2021/04/07 02:27:12;;;;;;;19.20;2.92;;;1.60;95.40;;;;;;5031459;28;20014;-71
2021/04/07 02:29:39;;;;;;;16.17;2.22;;;1.60;95.40;;;;;;5030398;28;20030;-71
2021/04/07 02:32:05;;;;;;;8.98;1.70;;;1.60;95.20;;;;;;5030941;28;20490;-71
2021/04/07 02:34:31;;;;;;;12.60;2.55;;;1.60;95.00;;;;;;5028624;28;20482;-71
2021/04/07 02:36:59;;;;;;;19.05;2.92;;;1.60;95.10;;;;;;5031082;28;20509;-71
2021/04/07 02:39:24;;;;;;;17.15;2.17;;;1.60;95.50;;;;;;5024942;28;20055;-71
2021/04/07 02:41:50;;;;;;;9.23;2.00;;;1.60;95.10;;;;;;5031651;28;20104;-71
2021/04/07 02:44:16;;;;;;;9.65;2.03;;;1.60;95.40;;;;;;5032485;28;20029;-71
2021/04/07 02:46:41;;;;;;;13.68;2.15;;;1.70;95.60;;;;;;5032281;28;20022;-71
2021/04/07 02:49:07;;;;;;;10.45;2.28;;;1.70;95.60;;;;;;5031537;28;20069;-72
2021/04/07 02:51:33;;;;;;;15.45;2.28;;;1.70;95.40;;;;;;5031041;28;20029;-71
2021/04/07 02:53:58;;;;;;;11.65;2.15;;;1.70;94.70;;;;;;5029795;28;20056;-70
2021/04/07 02:56:24;;;;;;;15.10;2.53;;;1.70;94.90;;;;;;5014566;28;20037;-71
2021/04/07 02:58:50;;;;;;;8.63;2.00;;;1.70;95.10;;;;;;5032024;28;20033;-71
2021/04/07 03:01:15;;;;;;;11.05;1.67;;;1.70;95.20;;;;;;5030954;28;20112;-72
2021/04/07 03:03:41;;;;;;;10.65;2.50;;;1.60;95.20;;;;;;5031468;28;20029;-71
2021/04/07 03:06:07;;;;;;;12.35;1.90;;;1.60;94.60;;;;;;5031287;28;20068;-71
2021/04/07 03:08:32;;;;;;;13.50;2.17;;;1.70;94.60;;;;;;5031448;28;20108;-71
2021/04/07 03:10:58;;;;;;;13.40;2.38;;;1.60;95.00;;;;;;5030580;28;20041;-71
2021/04/07 03:13:24;;;;;;;10.40;1.77;;;1.60;95.10;;;;;;5030937;28;20029;-71
2021/04/07 03:15:50;;;;;;;13.40;1.92;;;1.60;94.90;;;;;;5035233;28;20025;-71
2021/04/07 03:18:15;;;;;;;11.88;2.15;;;1.60;94.70;;;;;;5030805;28;20032;-71
2021/04/07 03:20:41;;;;;;;11.10;2.00;;;1.50;94.80;;;;;;5031146;28;20029;-71
2021/04/07 03:23:07;;;;;;;12.23;3.08;;;1.50;94.70;;;;;;5032160;28;20041;-71
2021/04/07 03:25:32;;;;;;;13.60;3.10;;;1.50;94.40;;;;;;5030692;28;20026;-72
2021/04/07 03:27:58;;;;;;;12.77;2.10;;;1.50;94.70;;;;;;5029879;28;20104;-71
2021/04/07 03:30:24;;;;;;;10.77;2.13;;;1.50;94.70;;;;;;5031386;28;20035;-71
2021/04/07 03:32:49;;;;;;;8.38;2.08;;;1.40;94.70;;;;;;5030676;28;20340;-71
2021/04/07 03:35:18;;;;;;;19.05;2.60;;;1.40;94.60;;;;;;5030820;28;20344;-71
2021/04/07 03:37:44;;;;;;;11.32;2.10;;;1.40;94.40;;;;;;5029168;28;20025;-71
2021/04/07 03:40:11;;;;;;;12.85;2.20;;;1.40;94.80;;;;;;5029568;28;20036;-71
2021/04/07 03:42:36;;;;;;;12.50;2.22;;;1.30;94.50;;;;;;5030677;28;20017;-71
2021/04/07 03:45:03;;;;;;;8.50;1.88;;;1.30;94.40;;;;;;5031106;28;20040;-72
2021/04/07 03:47:29;;;;;;;12.77;2.47;;;1.30;94.00;;;;;;5025893;28;20036;-70
2021/04/07 03:49:54;;;;;;;14.40;2.08;;;1.30;94.10;;;;;;5030365;28;20037;-71
2021/04/07 03:52:20;;;;;;;16.67;2.95;;;1.30;93.80;;;;;;5030979;28;20036;-71
2021/04/07 03:54:45;;;;;;;7.90;1.85;;;1.30;94.00;;;;;;5029959;28;20079;-71
2021/04/07 03:57:11;;;;;;;16.55;2.58;;;1.30;93.90;;;;;;5028175;28;20033;-71
2021/04/07 03:59:37;;;;;;;10.82;1.90;;;1.30;93.90;;;;;;5030090;28;20398;-71
2021/04/07 04:02:03;;;;;;;7.03;2.08;;;1.30;93.80;;;;;;5028066;28;20053;-71
2021/04/07 04:04:28;;;;;;;15.73;2.50;;;1.20;93.70;;;;;;5030634;28;20025;-71
2021/04/07 04:06:54;;;;;;;10.13;2.35;;;1.20;93.60;;;;;;5028993;28;20068;-71
2021/04/07 04:09:19;;;;;;;7.50;1.98;;;1.20;93.80;;;;;;5029453;28;20029;-71
2021/04/07 04:11:45;;;;;;;15.25;2.75;;;1.20;93.70;;;;;;5030851;28;20112;-71
2021/04/07 04:14:11;;;;;;;10.80;2.35;;;1.20;93.80;;;;;;5030076;28;20426;-71
2021/04/07 04:16:37;;;;;;;18.08;2.75;;;1.20;93.60;;;;;;5009982;28;20081;-71
2021/04/07 04:19:02;;;;;;;11.75;2.17;;;1.20;93.70;;;;;;5029533;28;20033;-71
2021/04/07 04:21:28;;;;;;;9.43;2.25;;;1.20;93.50;;;;;;5031039;28;20034;-71
2021/04/07 04:23:54;;;;;;;11.27;2.65;;;1.20;93.60;;;;;;5029953;28;20026;-71
2021/04/07 04:26:20;;;;;;;13.23;2.53;;;1.10;93.70;;;;;;5015526;28;20441;-71
2021/04/07 04:28:45;;;;;;;14.57;2.28;;;1.20;93.30;;;;;;5034697;28;20045;-71
2021/04/07 04:31:11;;;;;;;12.30;2.60;;;1.20;93.50;;;;;;5032970;28;20030;-70
2021/04/07 04:33:37;;;;;;;11.20;2.80;;;1.20;93.60;;;;;;5033898;28;20033;-71
2021/04/07 04:36:03;;;;;;;12.63;3.53;;;1.10;93.60;;;;;;5036550;28;20021;-71
2021/04/07 04:38:28;;;;;;;13.20;2.58;;;1.10;93.50;;;;;;5034439;28;20105;-69
2021/04/07 04:40:54;;;;;;;9.75;3.00;;;1.10;93.60;;;;;;5033698;28;20116;-69
2021/04/07 04:43:20;;;;;;;11.02;2.50;;;1.10;93.70;;;;;;5032516;28;20027;-70
2021/04/07 04:45:46;;;;;;;16.10;3.72;;;1.10;93.60;;;;;;5032575;28;20056;-70
2021/04/07 04:48:12;;;;;;;17.45;2.90;;;1.10;93.80;;;;;;5015706;28;20452;-69
2021/04/07 04:50:38;;;;;;;11.52;2.78;;;1.10;93.60;;;;;;5034110;28;20372;-70
2021/04/07 04:53:04;;;;;;;13.85;2.85;;;1.10;93.70;;;;;;5034142;28;20029;-70
2021/04/07 04:55:29;;;;;;;9.00;2.15;;;1.10;93.90;;;;;;5032950;28;20037;-70
2021/04/07 04:57:56;;;;;;;10.65;2.17;;;1.10;93.20;;;;;;5033077;28;20375;-70
2021/04/07 05:00:23;;;;;;;8.82;2.20;;;1.10;93.50;;;;;;5032102;28;20025;-69
2021/04/07 05:02:51;;;;;;;13.25;2.17;;;1.10;93.60;;;;;;5033919;28;20487;-69
2021/04/07 05:05:17;;;;;;;10.07;2.20;;;1.10;93.60;;;;;;5033293;28;20135;-69
2021/04/07 05:07:43;;;;;;;14.65;2.60;;;1.10;93.60;;;;;;5031804;28;20017;-70
2021/04/07 05:10:09;;;;;;;19.02;3.70;;;1.10;93.90;;;;;;5031748;28;20032;-70
2021/04/07 05:12:34;;;;;;;10.15;2.85;;;1.10;93.70;;;;;;5033704;28;20026;-70
2021/04/07 05:15:00;;;;;;;14.82;2.80;;;1.10;93.70;;;;;;5033527;28;20044;-69
2021/04/07 05:17:28;;;;;;;15.75;3.33;;;1.20;93.60;;;;;;5032524;28;20414;-70
2021/04/07 05:19:54;;;;;;;12.75;3.28;;;1.20;93.80;;;;;;5032152;28;20040;-69
2021/04/07 05:22:20;;;;;;;16.67;4.97;;;1.20;93.90;;;;;;5033621;28;20039;-70
2021/04/07 05:24:45;;;;;;;14.20;3.03;;;1.20;93.80;;;;;;5033233;28;20370;-70
2021/04/07 05:27:11;;;;;;;11.52;3.08;;;1.20;93.60;;;;;;5032902;28;20025;-70
2021/04/07 05:29:37;;;;;;;13.40;3.22;;;1.30;93.60;;;;;;5032658;28;20340;-69
2021/04/07 05:32:03;;;;;;;15.38;3.13;;;1.20;93.20;;;;;;5033130;28;20033;-71
2021/04/07 05:34:28;;;;;;;12.43;3.10;;;1.20;93.60;;;;;;5032741;28;20034;-70
2021/04/07 05:36:55;;;;;;;9.75;2.58;;;1.20;93.80;;;;;;5033400;28;20692;-70
2021/04/07 05:39:20;;;;;;;10.50;2.55;;;1.30;93.30;;;;;;5033210;28;20041;-70
2021/04/07 05:41:46;;;;;;;21.20;3.08;;;1.30;93.60;;;;;;5036820;28;20025;-71
2021/04/07 05:44:12;;;;;;;18.48;2.95;;;1.20;93.50;;;;;;5033895;28;20060;-70
2021/04/07 05:46:37;;;;;;;15.25;3.17;;;1.30;93.80;;;;;;5013799;28;20124;-70
2021/04/07 05:49:03;;;;;;;12.38;3.30;;;1.30;93.70;;;;;;5031860;28;20033;-70
2021/04/07 05:51:29;;;;;;;10.48;3.05;;;1.30;93.70;;;;;;5031078;28;20394;-69
2021/04/07 05:53:54;;;;;;;18.45;4.00;;;1.30;93.90;;;;;;5036853;28;20032;-70
2021/04/07 05:56:20;;;;;;;11.45;2.40;;;1.30;94.00;;;;;;5031451;28;20037;-70
2021/04/07 05:58:46;;;;;;;10.77;2.35;;;1.30;93.80;;;;;;5033815;28;20478;-69
2021/04/07 06:01:11;;;;;;;9.15;2.30;;;1.30;93.70;;;;;;5029747;28;20029;-70
2021/04/07 06:03:37;;;;;;;12.75;2.47;;;1.40;93.60;;;;;;5028401;28;20033;-70
2021/04/07 06:06:07;;;;;;;10.55;2.35;;;1.40;93.70;;;;;;5015456;28;20079;-70
2021/04/07 06:08:33;;;;;;;10.30;2.60;;;1.40;93.70;;;;;;5033631;28;20494;-69
2021/04/07 06:10:59;;;;;;;20.27;2.65;;;1.40;93.90;;;;;;5032742;28;20033;-70
2021/04/07 06:13:24;;;;;;;7.95;2.50;;;1.40;93.80;;;;;;5032577;28;20025;-69
2021/04/07 06:15:50;;;;;;;11.05;2.85;;;1.40;93.90;;;;;;5029396;28;20435;-71
2021/04/07 06:18:16;;;;;;;10.80;3.08;;;1.50;93.30;;;;;;5034386;28;20671;-70
2021/04/07 06:20:44;;;;;;;13.07;2.22;;;1.50;93.50;;;;;;5029650;28;20116;-70
2021/04/07 06:23:11;;;;;;;11.93;2.63;;;1.50;93.50;;;;;;5013854;28;20063;-70
2021/04/07 06:25:38;;;;;;;9.45;2.85;;;1.50;93.70;;;;;;5035967;28;20018;-69
2021/04/07 06:28:06;;;;;;;9.35;2.45;;;1.50;93.60;;;;;;5032846;28;20478;-70
2021/04/07 06:30:45;;;;;;;9.65;2.15;;;1.50;93.60;;;;;;5031152;28;20395;-70
2021/04/07 06:33:24;;;;;;;9.38;2.40;;;1.50;93.50;;;;;;5026540;28;20487;-70
2021/04/07 06:35:59;;;;;;;8.18;2.25;;;1.60;93.60;;;;;;5030978;28;20044;-70
2021/04/07 06:38:26;;;;;;;11.77;2.40;;;1.60;93.60;;;;;;5029391;28;20069;-70
2021/04/07 06:40:54;;;;;;;6.38;2.13;;;1.60;92.90;;;;;;5032197;28;20097;-70
2021/04/07 06:43:22;;;;;;;13.38;2.42;;;1.70;93.00;;;;;;5032011;28;20124;-74
2021/04/07 06:45:48;;;;;;;8.75;2.13;;;1.60;93.40;;;;;;5025610;28;20021;-70
2021/04/07 06:48:15;;;;;;;7.93;2.35;;;1.60;93.20;;;;;;5028313;28;20021;-70
2021/04/07 06:50:42;;;;;;;9.52;2.53;;;1.60;93.20;;;;;;5030427;28;20057;-70
2021/04/07 06:53:09;;;;;;;8.57;1.75;;;1.60;93.30;;;;;;5029140;28;20034;-71
2021/04/07 06:55:36;;;;;;;8.30;1.90;;;1.70;93.00;;;;;;5030843;28;20097;-71
2021/04/07 06:58:04;;;;;;;5.22;2.03;;;1.70;93.00;;;;;;5030240;28;20063;-71
2021/04/07 07:00:31;;;;;;;6.35;2.15;;;1.70;92.70;;;;;;5034089;28;20576;-72
2021/04/07 07:03:09;;;;;;;9.70;2.20;;;1.70;93.30;;;;;;5032087;28;20025;-72
2021/04/07 07:05:37;;;;;;;6.07;2.40;;;1.70;93.20;;;;;;5032044;28;20025;-71
2021/04/07 07:08:05;;;;;;;3.85;1.67;;;1.70;92.70;;;;;;5031199;28;20499;-71
2021/04/07 07:10:38;;;;;;;7.68;1.90;;;1.70;92.80;;;;;;5032835;28;20053;-71
2021/04/07 07:13:04;;;;;;;7.55;1.70;;;1.70;93.10;;;;;;5030867;28;20040;-71
2021/04/07 07:15:30;;;;;;;6.38;2.28;;;1.70;92.70;;;;;;5032053;28;20037;-71
2021/04/07 07:17:56;;;;;;;9.40;2.55;;;1.70;93.10;;;;;;5030928;28;20086;-71
2021/04/07 07:20:30;;;;;;;8.38;2.22;;;1.60;93.40;;;;;;5033220;28;20120;-71
2021/04/07 07:22:57;;;;;;;8.82;1.75;;;1.70;93.60;;;;;;5040989;28;20029;-71
2021/04/07 07:25:24;;;;;;;9.98;2.75;;;1.70;93.50;;;;;;5031339;28;20057;-71
2021/04/07 07:27:58;;;;;;;11.82;2.38;;;1.70;93.60;;;;;;5014585;28;20482;-71
2021/04/07 07:30:33;;;;;;;13.25;2.20;;;1.70;93.70;;;;;;5029089;28;20112;-71
2021/04/07 07:32:59;;;;;;;4.85;2.00;;;1.80;93.70;;;;;;5029896;28;20030;-72
2021/04/07 07:35:27;;;;;;;9.82;2.63;;;1.80;93.50;;;;;;5029273;28;20459;-71
2021/04/07 07:38:00;;;;;;;8.40;2.78;;;1.80;93.90;;;;;;5033289;28;20025;-73
2021/04/07 07:40:27;;;;;;;7.93;2.17;;;1.80;93.80;;;;;;5030231;28;20649;-72
2021/04/07 07:42:53;;;;;;;7.03;2.20;;;1.90;94.00;;;;;;5028461;28;20037;-72
2021/04/07 07:45:29;;;;;;;5.35;1.95;;;2.00;93.80;;;;;;5028427;28;20033;-72
2021/04/07 07:48:12;;;;;;;4.15;1.80;;;2.00;93.60;;;;;;5029818;28;20038;-72
2021/04/07 07:50:40;;;;;;;5.32;1.83;;;2.10;93.60;;;;;;5030980;28;20034;-72
2021/04/07 07:53:14;;;;;;;5.97;1.95;;;2.10;93.60;;;;;;5029866;28;20033;-72
2021/04/07 07:55:40;;;;;;;6.47;1.80;;;2.10;93.60;;;;;;5030685;28;20030;-72
2021/04/07 07:58:07;;;;;;;5.30;2.00;;;2.20;93.40;;;;;;5030470;28;20029;-72
2021/04/07 08:00:33;;;;;;;6.82;2.28;;;2.20;93.30;;;;;;5028526;28;20029;-72
2021/04/07 08:03:08;;;;;;;5.13;2.10;;;2.20;93.40;;;;;;5030652;28;20029;-71
2021/04/07 08:05:36;;;;;;;7.40;2.05;;;2.20;93.60;;;;;;5030666;28;20029;-72
2021/04/07 08:08:03;;;;;;;5.88;1.80;;;2.20;93.80;;;;;;5030569;28;20049;-71
2021/04/07 08:10:29;;;;;;;5.07;2.08;;;2.30;92.90;;;;;;5030943;28;20041;-72
2021/04/07 08:12:57;;;;;;;5.45;1.88;;;2.30;93.30;;;;;;5030737;28;20068;-71
2021/04/07 08:15:24;;;;;;;7.07;1.98;;;2.30;93.50;;;;;;5028308;28;20037;-72
2021/04/07 08:17:50;;;;;;;5.28;2.17;;;2.30;93.30;;;;;;5029692;28;20399;-72
2021/04/07 08:20:16;;;;;;;5.30;1.63;;;2.30;93.70;;;;;;5029168;28;20030;-72
2021/04/07 08:22:43;;;;;;;7.70;3.55;;;2.40;92.80;;;;;;5030192;28;20100;-71
2021/04/07 08:25:13;;;;;;;3.75;1.85;;;2.40;93.20;;;;;;5031092;28;20048;-71
2021/04/07 08:27:39;;;;;;;9.95;1.80;;;2.40;93.20;;;;;;5030728;28;20108;-71
2021/04/07 08:30:07;;;;;;;8.32;1.92;;;2.40;93.40;;;;;;5034188;28;20033;-72
2021/04/07 08:32:33;;;;;;;6.95;2.10;;;2.40;93.50;;;;;;5031532;28;20037;-71
2021/04/07 08:35:00;;;;;;;5.80;1.67;;;2.40;93.80;;;;;;5029034;28;20034;-71
2021/04/07 08:37:31;;;;;;;5.88;1.73;;;2.40;93.80;;;;;;5030264;28;20099;-72
2021/04/07 08:40:12;;;;;;;4.90;1.70;;;2.50;93.70;;;;;;5032100;28;20535;-71
2021/04/07 08:42:40;;;;;;;7.95;1.75;;;2.50;93.40;;;;;;5031991;28;20514;-71
2021/04/07 08:45:09;;;;;;;4.90;1.90;;;2.50;93.60;;;;;;5031167;28;20112;-72
2021/04/07 08:47:48;;;;;;;5.28;1.90;;;2.50;93.70;;;;;;5029474;28;20021;-72
2021/04/07 08:50:15;;;;;;;6.88;1.75;;;2.40;94.00;;;;;;5026045;28;20057;-71
2021/04/07 08:52:49;;;;;;;5.40;1.70;;;2.50;93.70;;;;;;5031521;28;20087;-71
2021/04/07 08:55:33;;;;;;;9.88;2.30;;;2.60;93.70;;;;;;5030276;28;20060;-71
2021/04/07 08:58:05;;;;;;;3.95;1.83;;;2.50;93.80;;;;;;5029875;28;20105;-71
2021/04/07 09:00:33;;;;;;;5.10;2.08;;;2.50;93.90;;;;;;5029233;28;20502;-72
2021/04/07 09:03:10;;;;;;;5.32;1.77;;;2.70;93.10;;;;;;5030439;28;20033;-71
2021/04/07 09:05:38;;;;;;;5.28;1.83;;;2.70;93.50;;;;;;5031881;28;20113;-70
2021/04/07 09:08:06;;;;;;;8.85;2.00;;;2.70;93.40;;;;;;5031187;28;20479;-71
2021/04/07 09:10:43;;;;;;;6.00;1.70;;;2.70;93.20;;;;;;5029754;28;20064;-71
2021/04/07 09:13:11;;;;;;;5.03;1.90;;;2.70;93.50;;;;;;5033851;28;20028;-72
2021/04/07 09:15:51;;;;;;;5.68;1.70;;;2.70;93.80;;;;;;5032881;28;20044;-71
2021/04/07 09:18:30;;;;;;;5.43;2.17;;;2.80;93.40;;;;;;5029592;28;20087;-71
2021/04/07 09:20:57;;;;;;;3.67;1.95;;;2.90;93.30;;;;;;5030303;28;20080;-71
2021/04/07 09:23:27;;;;;;;2.70;1.92;;;2.80;93.60;;;;;;5033879;28;20074;-71
2021/04/07 09:26:08;;;;;;;5.05;1.60;;;2.80;93.60;;;;;;5035475;28;20026;-70
2021/04/07 09:28:48;;;;;;;9.43;2.58;;;2.90;93.40;;;;;;5032540;28;20021;-72
2021/04/07 09:31:19;;;;;;;3.25;1.75;;;2.90;93.20;;;;;;5030934;28;20034;-71
2021/04/07 09:33:46;;;;;;;7.05;2.55;;;2.90;93.50;;;;;;5031444;28;20037;-70
2021/04/07 09:36:14;;;;;;;4.28;2.20;;;3.00;93.80;;;;;;5032352;28;20041;-69
2021/04/07 09:38:51;;;;;;;6.10;2.33;;;3.00;93.50;;;;;;5032321;28;20095;-73
2021/04/07 09:41:19;;;;;;;9.77;2.67;;;3.00;93.70;;;;;;5032232;28;20036;-70
2021/04/07 09:43:45;;;;;;;7.25;2.45;;;3.10;93.60;;;;;;5032152;28;20021;-71
2021/04/07 09:46:11;;;;;;;6.63;2.33;;;3.10;93.20;;;;;;5030838;28;20100;-68
2021/04/07 09:48:45;;;;;;;3.88;1.90;;;3.10;93.50;;;;;;5031814;28;20109;-70
2021/04/07 09:51:30;;;;;;;6.03;2.05;;;3.10;93.40;;;;;;5032471;28;20038;-71
2021/04/07 09:54:18;;;;;;;7.22;2.20;;;3.20;93.10;;;;;;5031286;28;20041;-71
2021/04/07 09:56:48;;;;;;;6.20;2.08;;;3.20;93.10;;;;;;5032739;28;20029;-72
2021/04/07 09:59:14;;;;;;;3.80;2.10;;;3.20;92.80;;;;;;5032894;28;20060;-73
2021/04/07 10:01:40;;;;;;;4.97;2.25;;;3.20;93.30;;;;;;5033476;28;20029;-70
2021/04/07 10:04:07;;;;;;;4.18;1.75;;;3.20;93.40;;;;;;5031685;28;20036;-71
2021/04/07 10:06:33;;;;;;;4.28;1.70;;;3.20;93.30;;;;;;5029067;28;20147;-70
2021/04/07 10:09:09;;;;;;;4.55;1.67;;;3.30;93.10;;;;;;5028327;28;20482;-69
2021/04/07 10:11:41;;;;;;;5.82;1.80;;;3.30;93.10;;;;;;5030782;28;20386;-70
2021/04/07 10:14:07;;;;;;;;;;;3.30;93.20;;;;;;5030926;28;20021;-70
2021/04/07 10:16:38;;;;;;;4.72;1.85;;;3.30;92.90;;;;;;5030593;28;19912;-70
2021/04/07 10:19:08;;;;;;;6.43;2.17;;;3.40;93.10;;;;;;5029379;28;20037;-71
2021/04/07 10:21:35;;;;;;;4.47;1.75;;;3.60;92.70;;;;;;5036201;28;20418;-70
2021/04/07 10:24:02;;;;;;;6.28;2.10;;;3.80;92.70;;;;;;5029334;28;20060;-70
2021/04/07 10:26:29;;;;;;;5.57;2.10;;;3.90;92.40;;;;;;5029927;28;20517;-70
2021/04/07 10:29:01;;;;;;;3.25;2.28;;;4.20;91.70;;;;;;5030116;28;20140;-71
2021/04/07 10:31:28;;;;;;;3.47;1.90;;;4.30;92.10;;;;;;5031191;28;20059;-71
2021/04/07 10:34:08;;;;;;;4.03;2.03;;;4.50;91.70;;;;;;5030512;28;20112;-71
2021/04/07 10:36:36;;;;;;;2.75;1.77;;;4.60;91.40;;;;;;5011032;28;20127;-70
2021/04/07 10:39:17;;;;;;;5.53;1.90;;;4.90;90.30;;;;;;5032335;28;20370;-71
2021/04/07 10:41:50;;;;;;;5.63;2.30;;;5.10;90.70;;;;;;5033090;28;20104;-71
2021/04/07 10:44:27;;;;;;;3.70;1.90;;;5.00;90.40;;;;;;5029779;28;20044;-71
2021/04/07 10:46:53;;;;;;;8.07;3.08;;;5.00;90.60;;;;;;5011153;28;20022;-72
2021/04/07 10:49:20;;;;;;;4.88;1.70;;;4.90;90.50;;;;;;5031079;28;20383;-72
2021/04/07 10:52:04;;;;;;;5.22;2.35;;;4.90;91.10;;;;;;5030393;28;20022;-72
2021/04/07 10:54:33;;;;;;;3.63;2.13;;;4.90;91.20;;;;;;5036582;28;20739;-71
2021/04/07 10:57:10;;;;;;;3.88;1.60;;;4.90;90.60;;;;;;5034004;28;20048;-72
2021/04/07 10:59:37;;;;;;;4.40;1.63;;;4.90;90.80;;;;;;4998454;28;20057;-70
2021/04/07 11:02:14;;;;;;;4.05;2.28;;;4.90;91.00;;;;;;5030558;28;20029;-71
2021/04/07 11:04:39;;;;;;;3.38;1.92;;;4.90;91.20;;;;;;5029542;28;20482;-70
2021/04/07 11:07:07;;;;;;;2.88;1.75;;;4.90;91.30;;;;;;5027029;28;20052;-69
2021/04/07 11:09:35;;;;;;;4.85;2.38;;;5.00;91.00;;;;;;5028532;28;20033;-69
2021/04/07 11:12:05;;;;;;;5.00;2.58;;;5.00;91.30;;;;;;5029327;28;20033;-69
2021/04/07 11:14:31;;;;;;;5.93;1.80;;;5.00;91.50;;;;;;5028557;28;20048;-69
2021/04/07 11:17:03;;;;;;;7.03;2.20;;;5.10;91.60;;;;;;5029866;28;20029;-69
2021/04/07 11:19:39;;;;;;;6.88;1.90;;;5.30;90.50;;;;;;5028150;28;20079;-70
2021/04/07 11:22:06;;;;;;;5.15;2.30;;;5.30;90.10;;;;;;5056310;22;21435;-69
2021/04/07 11:24:35;;;;;;;4.40;2.53;;;5.30;90.50;;;;;;5049112;28;20029;-69
2021/04/07 11:27:01;;;;;;;4.82;1.90;;;5.30;91.10;;;;;;5049219;28;20032;-69
2021/04/07 11:29:26;;;;;;;5.18;2.03;;;5.40;90.30;;;;;;5048695;28;20036;-69
2021/04/07 11:32:02;;;;;;;6.38;2.42;;;5.40;90.60;;;;;;5048156;28;20053;-69
2021/04/07 11:34:34;;;;;;;4.15;2.17;;;5.40;90.90;;;;;;5046181;28;20095;-69
2021/04/07 11:46:52;;;;;;;5.00;1.95;;;5.30;91.70;;;;;;5045594;28;20025;-69
2021/04/07 11:49:18;;;;;;;3.17;1.75;;;5.30;91.90;;;;;;5044023;28;20237;-69
2021/04/07 11:51:45;;;;;;;38.40;16.17;;;5.40;92.60;;;;;;5032218;28;20081;-69
2021/04/07 11:54:13;;;;;;;85.32;41.33;;;5.50;91.70;;;;;;5048706;28;20128;-68
2021/04/07 11:56:45;;;;;;;60.42;30.58;;;5.60;91.40;;;;;;5044068;28;20025;-69
2021/04/07 11:59:15;;;;;;;9.27;5.55;;;5.50;91.80;;;;;;5029037;28;20043;-68
2021/04/07 12:01:43;;;;;;;3.90;2.08;;;5.60;91.90;;;;;;5042090;28;20036;-68
2021/04/07 12:04:09;;;;;;;6.22;2.20;;;5.50;92.40;;;;;;5044388;28;20028;-69
2021/04/07 12:06:35;;;;;;;4.45;2.28;;;5.60;92.20;;;;;;5042497;28;20032;-69
2021/04/07 12:09:03;;;;;;;4.60;1.90;;;5.40;92.70;;;;;;5045341;28;20066;-70
2021/04/07 12:11:29;;;;;;;3.95;2.00;;;5.40;92.70;;;;;;5047094;28;20438;-69
2021/04/07 12:13:54;;;;;;;5.78;2.05;;;5.30;93.50;;;;;;5048558;28;20146;-70
2021/04/07 12:16:20;;;;;;;3.92;2.10;;;5.50;94.20;;;;;;5028738;28;20025;-68
2021/04/07 12:18:46;;;;;;;5.03;2.45;;;5.80;93.10;;;;;;5046303;28;20064;-68
2021/04/07 12:21:14;;;;;;;5.50;2.40;;;6.00;93.00;;;;;;5040989;28;20505;-67
2021/04/07 12:23:40;;;;;;;6.18;2.60;;;6.20;92.60;;;;;;5041256;28;20044;-68
2021/04/07 12:26:06;;;;;;;6.32;2.55;;;6.40;93.20;;;;;;5039772;28;20394;-68
2021/04/07 12:28:34;;;;;;;4.32;2.60;;;6.80;92.50;;;;;;5042985;28;20029;-67
2021/04/07 12:31:00;;;;;;;5.32;1.80;;;7.20;91.50;;;;;;5026440;28;20025;-70
2021/04/07 12:33:28;;;;;;;4.18;1.55;;;7.50;90.70;;;;;;5034325;28;20033;-69
2021/04/07 12:35:54;;;;;;;7.45;1.75;;;7.70;89.30;;;;;;5028882;28;20051;-69
2021/04/07 12:38:20;;;;;;;4.50;1.52;;;7.70;87.70;;;;;;5026672;28;20028;-69
2021/04/07 12:40:52;;;;;;;5.65;1.80;;;7.60;87.30;;;;;;5011820;28;20122;-68
2021/04/07 12:43:18;;;;;;;6.53;1.67;;;7.30;89.60;;;;;;5045390;28;20028;-69
2021/04/07 12:45:44;;;;;;;7.78;1.60;;;7.20;90.80;;;;;;5046753;28;20097;-69
2021/04/07 12:48:11;;;;;;;8.77;2.00;;;7.30;90.30;;;;;;5031967;28;20040;-68
2021/04/07 12:50:37;;;;;;;7.00;1.45;;;7.40;88.90;;;;;;5032525;28;20033;-69
2021/04/07 12:53:03;;;;;;;10.98;1.63;;;7.30;88.60;;;;;;5046077;28;20059;-68
2021/04/07 12:55:30;;;;;;;8.85;2.00;;;7.20;88.40;;;;;;5050172;28;20021;-69
2021/04/07 12:58:01;;;;;;;7.07;1.98;;;7.10;89.50;;;;;;5045206;28;20025;-68
2021/04/07 13:00:28;;;;;;;10.82;1.90;;;7.10;88.90;;;;;;5050094;28;20059;-69
2021/04/07 13:02:54;;;;;;;12.88;2.33;;;7.00;89.70;;;;;;5015012;28;20036;-68
2021/04/07 13:05:20;;;;;;;12.38;2.45;;;7.10;90.10;;;;;;5050089;28;20587;-68
2021/04/07 13:07:47;;;;;;;15.70;2.83;;;7.40;87.10;;;;;;5031681;28;20025;-68